SMF weather

Finca La Frontera Airport
Aguaray, San Martín, Salta Province, Argentina

Public forecast

Using degrees Celsius for public forecast. Weather courtesy of forecast.io.

Closest aviation weather report (METAR) to Finca La Frontera Airport

Closest report is Yacuiba Airport, 22.3 nm (41.4 km) WNW. Retrieved 2019/10/16 19:00 UTC (19 minutes ago):

SLYA 161900Z 21005KT 9999 BKN023 OVC070 18/12 Q1015

Closest aviation forecast (TAF) to Finca La Frontera Airport

Forecast is more than 12 hours old.

Closest forecast is Yacuiba Airport, 22.3 nm (41.4 km) WNW. Retrieved 2019/10/03 00:00 UTC (14 days ago):

TAF SLYA 032200Z 0400/0424 00000KT 9999 FEW020 SCT070 TX21/0419Z TN15 /0411Z BECMG 0413/0415 14010KT SCT020 BKN070